sensor_id;sensor_type;location;lat;lon;timestamp;P1;durP1;ratioP1;P2;durP2;ratioP2
142;SDS011;63667;49.046;8.468;2023-11-25T00:00:05;5.97;;;2.70;;
142;SDS011;63667;49.046;8.468;2023-11-25T00:02:33;9.07;;;3.07;;
142;SDS011;63667;49.046;8.468;2023-11-25T00:05:01;6.07;;;2.50;;
142;SDS011;63667;49.046;8.468;2023-11-25T00:07:29;5.70;;;2.40;;
142;SDS011;63667;49.046;8.468;2023-11-25T00:09:59;3.70;;;2.30;;
142;SDS011;63667;49.046;8.468;2023-11-25T00:12:26;5.73;;;2.40;;
142;SDS011;63667;49.046;8.468;2023-11-25T00:14:54;8.83;;;2.37;;
142;SDS011;63667;49.046;8.468;2023-11-25T00:17:21;2.80;;;2.00;;
142;SDS011;63667;49.046;8.468;2023-11-25T00:19:54;8.67;;;2.30;;
142;SDS011;63667;49.046;8.468;2023-11-25T00:22:23;6.70;;;2.20;;
142;SDS011;63667;49.046;8.468;2023-11-25T00:24:50;8.37;;;2.57;;
142;SDS011;63667;49.046;8.468;2023-11-25T00:27:18;3.30;;;2.23;;
142;SDS011;63667;49.046;8.468;2023-11-25T00:29:49;6.73;;;2.50;;
142;SDS011;63667;49.046;8.468;2023-11-25T00:32:19;4.50;;;2.23;;
142;SDS011;63667;49.046;8.468;2023-11-25T00:34:47;4.33;;;2.30;;
142;SDS011;63667;49.046;8.468;2023-11-25T00:37:14;5.70;;;2.13;;
142;SDS011;63667;49.046;8.468;2023-11-25T00:39:42;9.43;;;2.40;;
142;SDS011;63667;49.046;8.468;2023-11-25T00:42:09;4.00;;;2.23;;
142;SDS011;63667;49.046;8.468;2023-11-25T00:44:36;4.23;;;2.20;;
142;SDS011;63667;49.046;8.468;2023-11-25T00:47:04;4.53;;;2.20;;
142;SDS011;63667;49.046;8.468;2023-11-25T00:49:37;9.53;;;2.17;;
142;SDS011;63667;49.046;8.468;2023-11-25T00:52:05;11.37;;;2.37;;
142;SDS011;63667;49.046;8.468;2023-11-25T00:54:34;7.10;;;2.80;;
142;SDS011;63667;49.046;8.468;2023-11-25T00:57:02;9.13;;;2.23;;
142;SDS011;63667;49.046;8.468;2023-11-25T00:59:30;6.23;;;2.10;;
142;SDS011;63667;49.046;8.468;2023-11-25T01:01:57;7.33;;;2.47;;
142;SDS011;63667;49.046;8.468;2023-11-25T01:04:25;4.47;;;2.40;;
142;SDS011;63667;49.046;8.468;2023-11-25T01:06:52;27.27;;;3.30;;
142;SDS011;63667;49.046;8.468;2023-11-25T01:09:20;8.77;;;2.50;;
142;SDS011;63667;49.046;8.468;2023-11-25T01:11:51;7.30;;;2.10;;
142;SDS011;63667;49.046;8.468;2023-11-25T01:14:20;6.53;;;2.60;;
142;SDS011;63667;49.046;8.468;2023-11-25T01:16:51;4.73;;;2.37;;
142;SDS011;63667;49.046;8.468;2023-11-25T01:19:18;3.50;;;2.30;;
142;SDS011;63667;49.046;8.468;2023-11-25T01:21:45;6.17;;;2.60;;
142;SDS011;63667;49.046;8.468;2023-11-25T01:24:13;4.43;;;2.20;;
142;SDS011;63667;49.046;8.468;2023-11-25T01:26:40;6.93;;;2.20;;
142;SDS011;63667;49.046;8.468;2023-11-25T01:29:08;5.97;;;2.30;;
142;SDS011;63667;49.046;8.468;2023-11-25T01:31:35;6.57;;;2.30;;
142;SDS011;63667;49.046;8.468;2023-11-25T01:34:02;7.73;;;2.60;;
142;SDS011;63667;49.046;8.468;2023-11-25T01:36:30;9.23;;;2.80;;
142;SDS011;63667;49.046;8.468;2023-11-25T01:38:57;3.87;;;1.97;;
142;SDS011;63667;49.046;8.468;2023-11-25T01:41:24;8.07;;;3.20;;
142;SDS011;63667;49.046;8.468;2023-11-25T01:43:52;9.10;;;2.93;;
142;SDS011;63667;49.046;8.468;2023-11-25T01:46:38;6.10;;;2.53;;
142;SDS011;63667;49.046;8.468;2023-11-25T01:49:11;4.27;;;2.20;;
142;SDS011;63667;49.046;8.468;2023-11-25T01:51:38;7.70;;;2.80;;
142;SDS011;63667;49.046;8.468;2023-11-25T01:54:29;10.60;;;2.97;;
142;SDS011;63667;49.046;8.468;2023-11-25T01:56:57;8.97;;;2.50;;
142;SDS011;63667;49.046;8.468;2023-11-25T01:59:27;7.40;;;2.80;;
142;SDS011;63667;49.046;8.468;2023-11-25T02:01:56;7.60;;;2.40;;
142;SDS011;63667;49.046;8.468;2023-11-25T02:04:22;9.50;;;2.30;;
142;SDS011;63667;49.046;8.468;2023-11-25T02:06:49;7.23;;;3.03;;
142;SDS011;63667;49.046;8.468;2023-11-25T02:09:17;10.30;;;2.67;;
142;SDS011;63667;49.046;8.468;2023-11-25T02:11:54;11.00;;;2.47;;
142;SDS011;63667;49.046;8.468;2023-11-25T02:14:24;6.53;;;2.50;;
142;SDS011;63667;49.046;8.468;2023-11-25T02:16:51;8.27;;;2.90;;
142;SDS011;63667;49.046;8.468;2023-11-25T02:19:22;5.13;;;2.97;;
142;SDS011;63667;49.046;8.468;2023-11-25T02:21:52;7.00;;;2.83;;
142;SDS011;63667;49.046;8.468;2023-11-25T02:24:19;6.57;;;2.60;;
142;SDS011;63667;49.046;8.468;2023-11-25T02:26:55;7.40;;;2.53;;
142;SDS011;63667;49.046;8.468;2023-11-25T02:29:23;5.80;;;2.87;;
142;SDS011;63667;49.046;8.468;2023-11-25T02:31:50;12.40;;;4.10;;
142;SDS011;63667;49.046;8.468;2023-11-25T02:34:17;7.50;;;3.50;;
142;SDS011;63667;49.046;8.468;2023-11-25T02:36:46;5.63;;;2.90;;
142;SDS011;63667;49.046;8.468;2023-11-25T02:39:14;10.93;;;2.50;;
142;SDS011;63667;49.046;8.468;2023-11-25T02:41:47;4.93;;;2.97;;
142;SDS011;63667;49.046;8.468;2023-11-25T02:44:15;7.47;;;2.97;;
142;SDS011;63667;49.046;8.468;2023-11-25T02:46:46;12.57;;;3.53;;
142;SDS011;63667;49.046;8.468;2023-11-25T02:49:14;5.10;;;2.90;;
142;SDS011;63667;49.046;8.468;2023-11-25T02:51:48;12.53;;;2.80;;
142;SDS011;63667;49.046;8.468;2023-11-25T02:54:16;8.10;;;3.13;;
142;SDS011;63667;49.046;8.468;2023-11-25T02:56:43;5.13;;;2.80;;
142;SDS011;63667;49.046;8.468;2023-11-25T02:59:11;9.20;;;3.23;;
142;SDS011;63667;49.046;8.468;2023-11-25T03:01:39;15.77;;;3.23;;
142;SDS011;63667;49.046;8.468;2023-11-25T03:04:18;8.00;;;2.40;;
142;SDS011;63667;49.046;8.468;2023-11-25T03:06:45;6.40;;;2.63;;
142;SDS011;63667;49.046;8.468;2023-11-25T03:09:16;11.77;;;3.17;;
142;SDS011;63667;49.046;8.468;2023-11-25T03:11:44;9.93;;;3.13;;
142;SDS011;63667;49.046;8.468;2023-11-25T03:14:11;10.97;;;3.33;;
142;SDS011;63667;49.046;8.468;2023-11-25T03:16:41;6.80;;;3.10;;
142;SDS011;63667;49.046;8.468;2023-11-25T03:19:08;6.87;;;3.00;;
142;SDS011;63667;49.046;8.468;2023-11-25T03:21:36;13.80;;;4.27;;
142;SDS011;63667;49.046;8.468;2023-11-25T03:24:04;5.57;;;2.93;;
142;SDS011;63667;49.046;8.468;2023-11-25T03:26:33;5.43;;;2.60;;
142;SDS011;63667;49.046;8.468;2023-11-25T03:29:00;9.00;;;3.23;;
142;SDS011;63667;49.046;8.468;2023-11-25T03:31:28;7.83;;;2.60;;
142;SDS011;63667;49.046;8.468;2023-11-25T03:33:56;7.87;;;3.20;;
142;SDS011;63667;49.046;8.468;2023-11-25T03:36:23;19.83;;;4.00;;
142;SDS011;63667;49.046;8.468;2023-11-25T03:38:50;5.53;;;2.90;;
142;SDS011;63667;49.046;8.468;2023-11-25T03:41:17;8.17;;;3.37;;
142;SDS011;63667;49.046;8.468;2023-11-25T03:43:45;12.23;;;3.63;;
142;SDS011;63667;49.046;8.468;2023-11-25T03:46:12;13.33;;;3.83;;
142;SDS011;63667;49.046;8.468;2023-11-25T03:48:40;8.60;;;3.47;;
142;SDS011;63667;49.046;8.468;2023-11-25T03:51:10;11.00;;;3.60;;
142;SDS011;63667;49.046;8.468;2023-11-25T03:53:38;7.80;;;3.50;;
142;SDS011;63667;49.046;8.468;2023-11-25T03:56:06;7.40;;;3.27;;
142;SDS011;63667;49.046;8.468;2023-11-25T03:58:35;7.73;;;3.53;;
142;SDS011;63667;49.046;8.468;2023-11-25T04:01:03;10.30;;;3.43;;
142;SDS011;63667;49.046;8.468;2023-11-25T04:03:30;8.03;;;3.23;;
142;SDS011;63667;49.046;8.468;2023-11-25T04:06:04;8.97;;;3.80;;
142;SDS011;63667;49.046;8.468;2023-11-25T04:08:31;8.73;;;3.20;;
142;SDS011;63667;49.046;8.468;2023-11-25T04:10:58;8.60;;;3.20;;
142;SDS011;63667;49.046;8.468;2023-11-25T04:13:25;10.63;;;3.80;;
142;SDS011;63667;49.046;8.468;2023-11-25T04:15:53;18.53;;;4.53;;
142;SDS011;63667;49.046;8.468;2023-11-25T04:18:20;8.53;;;3.10;;
142;SDS011;63667;49.046;8.468;2023-11-25T04:20:51;10.43;;;3.57;;
142;SDS011;63667;49.046;8.468;2023-11-25T04:23:18;11.70;;;2.83;;
142;SDS011;63667;49.046;8.468;2023-11-25T04:25:45;7.63;;;3.13;;
142;SDS011;63667;49.046;8.468;2023-11-25T04:28:13;9.70;;;3.30;;
142;SDS011;63667;49.046;8.468;2023-11-25T04:30:40;8.13;;;3.40;;
142;SDS011;63667;49.046;8.468;2023-11-25T04:33:08;7.57;;;3.40;;
142;SDS011;63667;49.046;8.468;2023-11-25T04:35:35;6.10;;;3.30;;
142;SDS011;63667;49.046;8.468;2023-11-25T04:38:03;10.90;;;3.50;;
142;SDS011;63667;49.046;8.468;2023-11-25T04:40:30;10.40;;;3.10;;
142;SDS011;63667;49.046;8.468;2023-11-25T04:42:57;15.70;;;3.73;;
142;SDS011;63667;49.046;8.468;2023-11-25T04:45:25;6.40;;;3.57;;
142;SDS011;63667;49.046;8.468;2023-11-25T04:47:52;10.00;;;4.00;;
142;SDS011;63667;49.046;8.468;2023-11-25T04:50:20;6.07;;;3.00;;
142;SDS011;63667;49.046;8.468;2023-11-25T04:52:48;7.60;;;3.20;;
142;SDS011;63667;49.046;8.468;2023-11-25T04:55:15;5.83;;;2.80;;
142;SDS011;63667;49.046;8.468;2023-11-25T04:57:43;9.43;;;3.17;;
142;SDS011;63667;49.046;8.468;2023-11-25T05:00:11;7.83;;;2.60;;
142;SDS011;63667;49.046;8.468;2023-11-25T05:02:42;12.23;;;2.63;;
142;SDS011;63667;49.046;8.468;2023-11-25T05:05:10;5.30;;;2.80;;
142;SDS011;63667;49.046;8.468;2023-11-25T05:07:38;8.40;;;3.33;;
142;SDS011;63667;49.046;8.468;2023-11-25T05:10:05;13.27;;;3.40;;
142;SDS011;63667;49.046;8.468;2023-11-25T05:12:35;6.33;;;3.63;;
142;SDS011;63667;49.046;8.468;2023-11-25T05:15:03;10.53;;;3.83;;
142;SDS011;63667;49.046;8.468;2023-11-25T05:17:34;10.20;;;4.20;;
142;SDS011;63667;49.046;8.468;2023-11-25T05:20:21;9.53;;;3.53;;
142;SDS011;63667;49.046;8.468;2023-11-25T05:22:49;11.83;;;2.77;;
142;SDS011;63667;49.046;8.468;2023-11-25T05:25:16;7.43;;;2.43;;
142;SDS011;63667;49.046;8.468;2023-11-25T05:27:44;8.00;;;2.50;;
142;SDS011;63667;49.046;8.468;2023-11-25T05:30:11;5.83;;;3.00;;
142;SDS011;63667;49.046;8.468;2023-11-25T05:32:42;9.97;;;2.60;;
142;SDS011;63667;49.046;8.468;2023-11-25T05:35:26;11.73;;;3.03;;
142;SDS011;63667;49.046;8.468;2023-11-25T05:37:54;5.50;;;2.87;;
142;SDS011;63667;49.046;8.468;2023-11-25T05:40:21;4.07;;;2.67;;
142;SDS011;63667;49.046;8.468;2023-11-25T05:42:48;12.10;;;3.13;;
142;SDS011;63667;49.046;8.468;2023-11-25T05:45:19;4.27;;;2.50;;
142;SDS011;63667;49.046;8.468;2023-11-25T05:47:49;8.40;;;2.93;;
142;SDS011;63667;49.046;8.468;2023-11-25T05:50:17;5.63;;;2.73;;
142;SDS011;63667;49.046;8.468;2023-11-25T05:52:48;6.90;;;2.90;;
142;SDS011;63667;49.046;8.468;2023-11-25T05:55:16;6.00;;;3.40;;
142;SDS011;63667;49.046;8.468;2023-11-25T05:57:45;14.40;;;3.37;;
142;SDS011;63667;49.046;8.468;2023-11-25T06:00:12;6.37;;;2.80;;
142;SDS011;63667;49.046;8.468;2023-11-25T06:02:40;5.23;;;2.50;;
142;SDS011;63667;49.046;8.468;2023-11-25T06:05:08;4.90;;;2.67;;
142;SDS011;63667;49.046;8.468;2023-11-25T06:07:36;12.20;;;2.80;;
142;SDS011;63667;49.046;8.468;2023-11-25T06:10:03;4.20;;;2.90;;
142;SDS011;63667;49.046;8.468;2023-11-25T06:12:31;6.43;;;3.37;;
142;SDS011;63667;49.046;8.468;2023-11-25T06:14:58;8.67;;;3.20;;
142;SDS011;63667;49.046;8.468;2023-11-25T06:17:26;9.63;;;4.37;;
142;SDS011;63667;49.046;8.468;2023-11-25T06:19:53;4.93;;;2.83;;
142;SDS011;63667;49.046;8.468;2023-11-25T06:22:20;15.60;;;3.50;;
142;SDS011;63667;49.046;8.468;2023-11-25T06:24:48;5.80;;;2.60;;
142;SDS011;63667;49.046;8.468;2023-11-25T06:27:16;9.23;;;2.80;;
142;SDS011;63667;49.046;8.468;2023-11-25T06:29:45;5.33;;;2.80;;
142;SDS011;63667;49.046;8.468;2023-11-25T06:32:13;4.00;;;2.60;;
142;SDS011;63667;49.046;8.468;2023-11-25T06:34:40;4.93;;;2.33;;
142;SDS011;63667;49.046;8.468;2023-11-25T06:37:08;5.90;;;2.60;;
142;SDS011;63667;49.046;8.468;2023-11-25T06:39:36;7.67;;;2.60;;
142;SDS011;63667;49.046;8.468;2023-11-25T06:42:04;8.30;;;3.27;;
142;SDS011;63667;49.046;8.468;2023-11-25T06:44:35;5.23;;;2.90;;
142;SDS011;63667;49.046;8.468;2023-11-25T06:47:02;7.27;;;3.07;;
142;SDS011;63667;49.046;8.468;2023-11-25T06:49:31;7.50;;;2.60;;
142;SDS011;63667;49.046;8.468;2023-11-25T06:51:58;11.60;;;2.80;;
142;SDS011;63667;49.046;8.468;2023-11-25T06:54:25;3.90;;;2.57;;
142;SDS011;63667;49.046;8.468;2023-11-25T06:56:53;6.20;;;2.53;;
142;SDS011;63667;49.046;8.468;2023-11-25T06:59:20;5.53;;;3.13;;
142;SDS011;63667;49.046;8.468;2023-11-25T07:01:48;12.77;;;2.70;;
142;SDS011;63667;49.046;8.468;2023-11-25T07:04:15;11.40;;;2.80;;
142;SDS011;63667;49.046;8.468;2023-11-25T07:06:44;12.63;;;2.77;;
142;SDS011;63667;49.046;8.468;2023-11-25T07:09:11;6.70;;;3.10;;
142;SDS011;63667;49.046;8.468;2023-11-25T07:11:39;4.30;;;2.60;;
142;SDS011;63667;49.046;8.468;2023-11-25T07:14:07;9.23;;;2.97;;
142;SDS011;63667;49.046;8.468;2023-11-25T07:16:34;9.63;;;3.00;;
142;SDS011;63667;49.046;8.468;2023-11-25T07:19:02;10.87;;;3.17;;
142;SDS011;63667;49.046;8.468;2023-11-25T07:21:31;4.40;;;2.53;;
142;SDS011;63667;49.046;8.468;2023-11-25T07:23:59;11.57;;;3.90;;
142;SDS011;63667;49.046;8.468;2023-11-25T07:26:26;7.60;;;3.17;;
142;SDS011;63667;49.046;8.468;2023-11-25T07:28:54;9.60;;;3.07;;
142;SDS011;63667;49.046;8.468;2023-11-25T07:31:22;12.23;;;3.43;;
142;SDS011;63667;49.046;8.468;2023-11-25T07:33:51;6.63;;;3.23;;
142;SDS011;63667;49.046;8.468;2023-11-25T07:36:20;10.23;;;2.80;;
142;SDS011;63667;49.046;8.468;2023-11-25T07:38:47;9.03;;;3.30;;
142;SDS011;63667;49.046;8.468;2023-11-25T07:41:15;7.47;;;3.30;;
142;SDS011;63667;49.046;8.468;2023-11-25T07:43:43;6.37;;;3.10;;
142;SDS011;63667;49.046;8.468;2023-11-25T07:46:10;6.80;;;3.00;;
142;SDS011;63667;49.046;8.468;2023-11-25T07:48:37;6.10;;;2.87;;
142;SDS011;63667;49.046;8.468;2023-11-25T07:51:05;10.77;;;3.13;;
142;SDS011;63667;49.046;8.468;2023-11-25T07:53:33;8.33;;;2.70;;
142;SDS011;63667;49.046;8.468;2023-11-25T07:56:01;8.40;;;3.60;;
142;SDS011;63667;49.046;8.468;2023-11-25T07:58:29;5.33;;;3.10;;
142;SDS011;63667;49.046;8.468;2023-11-25T08:00:57;7.23;;;3.10;;
142;SDS011;63667;49.046;8.468;2023-11-25T08:03:24;9.37;;;3.57;;
142;SDS011;63667;49.046;8.468;2023-11-25T08:05:52;6.07;;;3.20;;
142;SDS011;63667;49.046;8.468;2023-11-25T08:08:20;16.60;;;3.77;;
142;SDS011;63667;49.046;8.468;2023-11-25T08:10:47;9.60;;;3.23;;
142;SDS011;63667;49.046;8.468;2023-11-25T08:13:15;13.40;;;4.23;;
142;SDS011;63667;49.046;8.468;2023-11-25T08:15:45;17.43;;;3.80;;
142;SDS011;63667;49.046;8.468;2023-11-25T08:18:13;5.63;;;3.50;;
142;SDS011;63667;49.046;8.468;2023-11-25T08:20:42;15.00;;;4.93;;
142;SDS011;63667;49.046;8.468;2023-11-25T08:23:12;16.40;;;3.93;;
142;SDS011;63667;49.046;8.468;2023-11-25T08:25:41;10.23;;;3.73;;
142;SDS011;63667;49.046;8.468;2023-11-25T08:28:08;13.03;;;4.30;;
142;SDS011;63667;49.046;8.468;2023-11-25T08:30:35;9.57;;;3.10;;
142;SDS011;63667;49.046;8.468;2023-11-25T08:33:03;10.37;;;4.17;;
142;SDS011;63667;49.046;8.468;2023-11-25T08:35:31;9.30;;;3.13;;
142;SDS011;63667;49.046;8.468;2023-11-25T08:37:59;9.77;;;3.57;;
142;SDS011;63667;49.046;8.468;2023-11-25T08:40:26;10.97;;;3.70;;
142;SDS011;63667;49.046;8.468;2023-11-25T08:42:53;12.47;;;4.23;;
142;SDS011;63667;49.046;8.468;2023-11-25T08:45:22;8.47;;;3.43;;
142;SDS011;63667;49.046;8.468;2023-11-25T08:47:50;17.33;;;3.50;;
142;SDS011;63667;49.046;8.468;2023-11-25T08:50:19;8.80;;;3.90;;
142;SDS011;63667;49.046;8.468;2023-11-25T08:52:47;15.63;;;4.20;;
142;SDS011;63667;49.046;8.468;2023-11-25T08:55:15;8.40;;;4.30;;
142;SDS011;63667;49.046;8.468;2023-11-25T08:57:45;15.20;;;5.67;;
142;SDS011;63667;49.046;8.468;2023-11-25T09:00:13;9.30;;;4.50;;
142;SDS011;63667;49.046;8.468;2023-11-25T09:02:44;17.70;;;4.40;;
142;SDS011;63667;49.046;8.468;2023-11-25T09:05:14;9.70;;;4.00;;
142;SDS011;63667;49.046;8.468;2023-11-25T09:07:41;17.00;;;4.87;;
142;SDS011;63667;49.046;8.468;2023-11-25T09:10:09;19.60;;;4.40;;
142;SDS011;63667;49.046;8.468;2023-11-25T09:12:40;11.97;;;4.10;;
142;SDS011;63667;49.046;8.468;2023-11-25T09:15:07;16.83;;;3.77;;
142;SDS011;63667;49.046;8.468;2023-11-25T09:17:41;6.17;;;3.87;;
142;SDS011;63667;49.046;8.468;2023-11-25T09:20:27;8.97;;;3.90;;
142;SDS011;63667;49.046;8.468;2023-11-25T09:22:54;12.47;;;4.37;;
142;SDS011;63667;49.046;8.468;2023-11-25T09:25:21;10.43;;;4.10;;
142;SDS011;63667;49.046;8.468;2023-11-25T09:27:50;19.43;;;4.50;;
142;SDS011;63667;49.046;8.468;2023-11-25T09:30:18;16.27;;;5.20;;
142;SDS011;63667;49.046;8.468;2023-11-25T09:32:46;22.33;;;6.67;;
142;SDS011;63667;49.046;8.468;2023-11-25T09:35:13;12.60;;;5.10;;
142;SDS011;63667;49.046;8.468;2023-11-25T09:37:41;15.50;;;4.30;;
142;SDS011;63667;49.046;8.468;2023-11-25T09:40:09;11.17;;;4.50;;
142;SDS011;63667;49.046;8.468;2023-11-25T09:42:43;11.90;;;5.00;;
142;SDS011;63667;49.046;8.468;2023-11-25T09:45:11;11.43;;;4.70;;
142;SDS011;63667;49.046;8.468;2023-11-25T09:47:41;19.83;;;4.67;;
142;SDS011;63667;49.046;8.468;2023-11-25T09:50:11;15.90;;;4.50;;
142;SDS011;63667;49.046;8.468;2023-11-25T09:52:41;18.30;;;4.80;;
142;SDS011;63667;49.046;8.468;2023-11-25T09:55:09;15.10;;;4.60;;
142;SDS011;63667;49.046;8.468;2023-11-25T09:57:37;17.73;;;5.03;;
142;SDS011;63667;49.046;8.468;2023-11-25T10:00:07;14.13;;;4.67;;
142;SDS011;63667;49.046;8.468;2023-11-25T10:02:37;13.60;;;5.00;;
142;SDS011;63667;49.046;8.468;2023-11-25T10:05:06;15.20;;;5.10;;
142;SDS011;63667;49.046;8.468;2023-11-25T10:07:34;15.93;;;4.43;;
142;SDS011;63667;49.046;8.468;2023-11-25T10:10:02;15.13;;;4.47;;
142;SDS011;63667;49.046;8.468;2023-11-25T10:12:30;15.77;;;4.40;;
142;SDS011;63667;49.046;8.468;2023-11-25T10:14:57;12.37;;;4.20;;
142;SDS011;63667;49.046;8.468;2023-11-25T10:17:26;16.60;;;4.47;;
142;SDS011;63667;49.046;8.468;2023-11-25T10:20:03;12.93;;;4.63;;
142;SDS011;63667;49.046;8.468;2023-11-25T10:25:12;21.47;;;5.50;;
142;SDS011;63667;49.046;8.468;2023-11-25T10:27:41;14.10;;;5.00;;
142;SDS011;63667;49.046;8.468;2023-11-25T10:30:11;11.67;;;4.83;;
142;SDS011;63667;49.046;8.468;2023-11-25T10:32:42;16.37;;;6.37;;
142;SDS011;63667;49.046;8.468;2023-11-25T10:35:09;12.30;;;4.70;;
142;SDS011;63667;49.046;8.468;2023-11-25T10:37:37;32.63;;;5.70;;
142;SDS011;63667;49.046;8.468;2023-11-25T10:40:08;18.43;;;5.47;;
142;SDS011;63667;49.046;8.468;2023-11-25T10:42:35;19.77;;;5.47;;
142;SDS011;63667;49.046;8.468;2023-11-25T10:45:03;15.50;;;6.17;;
142;SDS011;63667;49.046;8.468;2023-11-25T10:47:32;22.10;;;5.87;;
142;SDS011;63667;49.046;8.468;2023-11-25T10:49:59;14.00;;;5.30;;
142;SDS011;63667;49.046;8.468;2023-11-25T10:52:30;26.93;;;5.90;;
142;SDS011;63667;49.046;8.468;2023-11-25T10:55:07;16.00;;;6.60;;
142;SDS011;63667;49.046;8.468;2023-11-25T10:57:34;14.43;;;5.20;;
142;SDS011;63667;49.046;8.468;2023-11-25T11:00:02;14.07;;;5.87;;
142;SDS011;63667;49.046;8.468;2023-11-25T11:03:00;24.13;;;6.20;;
142;SDS011;63667;49.046;8.468;2023-11-25T11:05:30;27.20;;;5.87;;
142;SDS011;63667;49.046;8.468;2023-11-25T11:08:07;24.77;;;6.17;;
142;SDS011;63667;49.046;8.468;2023-11-25T11:11:02;33.77;;;7.40;;
142;SDS011;63667;49.046;8.468;2023-11-25T11:13:31;20.60;;;6.03;;
142;SDS011;63667;49.046;8.468;2023-11-25T11:15:59;17.57;;;6.00;;
142;SDS011;63667;49.046;8.468;2023-11-25T11:18:28;19.40;;;6.93;;
142;SDS011;63667;49.046;8.468;2023-11-25T11:21:02;14.60;;;5.53;;
142;SDS011;63667;49.046;8.468;2023-11-25T11:23:31;18.90;;;5.50;;
142;SDS011;63667;49.046;8.468;2023-11-25T11:26:14;26.13;;;5.87;;
142;SDS011;63667;49.046;8.468;2023-11-25T11:31:38;18.10;;;5.87;;
142;SDS011;63667;49.046;8.468;2023-11-25T11:34:12;16.07;;;5.63;;
142;SDS011;63667;49.046;8.468;2023-11-25T11:36:39;19.00;;;5.80;;
142;SDS011;63667;49.046;8.468;2023-11-25T11:39:07;14.23;;;5.93;;
142;SDS011;63667;49.046;8.468;2023-11-25T11:41:37;23.43;;;6.40;;
142;SDS011;63667;49.046;8.468;2023-11-25T11:44:05;25.80;;;6.23;;
142;SDS011;63667;49.046;8.468;2023-11-25T11:46:35;24.07;;;6.20;;
142;SDS011;63667;49.046;8.468;2023-11-25T11:49:07;19.33;;;4.77;;
142;SDS011;63667;49.046;8.468;2023-11-25T11:51:34;26.47;;;8.03;;
142;SDS011;63667;49.046;8.468;2023-11-25T12:02:14;33.57;;;7.43;;
142;SDS011;63667;49.046;8.468;2023-11-25T12:04:41;22.33;;;5.60;;
142;SDS011;63667;49.046;8.468;2023-11-25T12:07:09;17.30;;;5.93;;
142;SDS011;63667;49.046;8.468;2023-11-25T12:09:36;22.47;;;5.47;;
142;SDS011;63667;49.046;8.468;2023-11-25T12:12:04;16.53;;;5.13;;
142;SDS011;63667;49.046;8.468;2023-11-25T12:14:32;16.30;;;5.13;;
142;SDS011;63667;49.046;8.468;2023-11-25T12:16:59;18.90;;;6.07;;
142;SDS011;63667;49.046;8.468;2023-11-25T12:19:27;20.30;;;5.90;;
142;SDS011;63667;49.046;8.468;2023-11-25T12:21:55;23.80;;;6.57;;
142;SDS011;63667;49.046;8.468;2023-11-25T12:24:22;18.53;;;5.90;;
142;SDS011;63667;49.046;8.468;2023-11-25T12:26:51;19.00;;;6.10;;
142;SDS011;63667;49.046;8.468;2023-11-25T12:29:22;20.73;;;5.50;;
142;SDS011;63667;49.046;8.468;2023-11-25T12:31:51;19.73;;;6.00;;
142;SDS011;63667;49.046;8.468;2023-11-25T12:34:19;17.20;;;6.57;;
142;SDS011;63667;49.046;8.468;2023-11-25T12:36:46;13.33;;;6.07;;
142;SDS011;63667;49.046;8.468;2023-11-25T12:39:16;19.30;;;6.10;;
142;SDS011;63667;49.046;8.468;2023-11-25T12:41:43;21.63;;;6.20;;
142;SDS011;63667;49.046;8.468;2023-11-25T12:44:10;24.67;;;6.73;;
142;SDS011;63667;49.046;8.468;2023-11-25T12:46:40;15.50;;;5.97;;
142;SDS011;63667;49.046;8.468;2023-11-25T12:49:21;15.67;;;5.53;;
142;SDS011;63667;49.046;8.468;2023-11-25T12:51:49;17.70;;;6.40;;
142;SDS011;63667;49.046;8.468;2023-11-25T12:54:17;13.00;;;5.83;;
142;SDS011;63667;49.046;8.468;2023-11-25T12:56:53;22.23;;;6.10;;
142;SDS011;63667;49.046;8.468;2023-11-25T12:59:22;20.03;;;5.73;;
142;SDS011;63667;49.046;8.468;2023-11-25T13:01:50;33.40;;;8.57;;
142;SDS011;63667;49.046;8.468;2023-11-25T13:04:17;23.07;;;6.33;;
142;SDS011;63667;49.046;8.468;2023-11-25T13:06:45;28.60;;;6.53;;
142;SDS011;63667;49.046;8.468;2023-11-25T13:09:13;23.33;;;5.00;;
142;SDS011;63667;49.046;8.468;2023-11-25T13:11:41;15.53;;;4.90;;
142;SDS011;63667;49.046;8.468;2023-11-25T13:14:09;10.70;;;4.40;;
142;SDS011;63667;49.046;8.468;2023-11-25T13:16:36;19.10;;;5.57;;
142;SDS011;63667;49.046;8.468;2023-11-25T13:19:05;19.10;;;5.10;;
142;SDS011;63667;49.046;8.468;2023-11-25T13:21:34;14.50;;;4.93;;
142;SDS011;63667;49.046;8.468;2023-11-25T13:24:01;17.30;;;6.07;;
142;SDS011;63667;49.046;8.468;2023-11-25T13:26:30;18.10;;;5.20;;
142;SDS011;63667;49.046;8.468;2023-11-25T13:28:59;21.63;;;6.27;;
142;SDS011;63667;49.046;8.468;2023-11-25T13:31:27;21.13;;;6.23;;
142;SDS011;63667;49.046;8.468;2023-11-25T13:33:54;17.10;;;5.87;;
142;SDS011;63667;49.046;8.468;2023-11-25T13:36:21;18.93;;;5.40;;
142;SDS011;63667;49.046;8.468;2023-11-25T13:38:49;14.47;;;5.37;;
142;SDS011;63667;49.046;8.468;2023-11-25T13:41:16;14.93;;;6.10;;
142;SDS011;63667;49.046;8.468;2023-11-25T13:43:43;13.03;;;4.73;;
142;SDS011;63667;49.046;8.468;2023-11-25T13:46:12;11.93;;;5.40;;
142;SDS011;63667;49.046;8.468;2023-11-25T13:48:39;24.27;;;6.00;;
142;SDS011;63667;49.046;8.468;2023-11-25T13:51:07;15.77;;;5.40;;
142;SDS011;63667;49.046;8.468;2023-11-25T13:53:35;12.53;;;5.13;;
142;SDS011;63667;49.046;8.468;2023-11-25T13:56:02;15.60;;;5.37;;
142;SDS011;63667;49.046;8.468;2023-11-25T13:58:30;20.57;;;5.90;;
142;SDS011;63667;49.046;8.468;2023-11-25T14:00:57;19.27;;;5.67;;
142;SDS011;63667;49.046;8.468;2023-11-25T14:03:25;15.33;;;4.90;;
142;SDS011;63667;49.046;8.468;2023-11-25T14:05:53;17.80;;;5.80;;
142;SDS011;63667;49.046;8.468;2023-11-25T14:08:21;20.67;;;6.47;;
142;SDS011;63667;49.046;8.468;2023-11-25T14:10:56;13.33;;;5.30;;
142;SDS011;63667;49.046;8.468;2023-11-25T14:13:24;13.00;;;6.77;;
142;SDS011;63667;49.046;8.468;2023-11-25T14:15:53;20.30;;;6.50;;
142;SDS011;63667;49.046;8.468;2023-11-25T14:18:20;22.87;;;5.83;;
142;SDS011;63667;49.046;8.468;2023-11-25T14:20:47;23.43;;;5.97;;
142;SDS011;63667;49.046;8.468;2023-11-25T14:23:15;14.17;;;5.90;;
142;SDS011;63667;49.046;8.468;2023-11-25T14:25:42;21.23;;;5.93;;
142;SDS011;63667;49.046;8.468;2023-11-25T14:28:10;17.03;;;6.30;;
142;SDS011;63667;49.046;8.468;2023-11-25T14:30:39;17.47;;;5.63;;
142;SDS011;63667;49.046;8.468;2023-11-25T14:33:06;9.43;;;4.83;;
142;SDS011;63667;49.046;8.468;2023-11-25T14:35:34;15.03;;;5.17;;
142;SDS011;63667;49.046;8.468;2023-11-25T14:38:02;10.80;;;4.30;;
142;SDS011;63667;49.046;8.468;2023-11-25T14:40:30;13.43;;;5.43;;
142;SDS011;63667;49.046;8.468;2023-11-25T14:43:01;12.43;;;5.20;;
142;SDS011;63667;49.046;8.468;2023-11-25T14:45:28;12.23;;;4.40;;
142;SDS011;63667;49.046;8.468;2023-11-25T14:47:56;7.67;;;4.03;;
142;SDS011;63667;49.046;8.468;2023-11-25T14:50:23;13.10;;;4.30;;
142;SDS011;63667;49.046;8.468;2023-11-25T14:52:51;9.10;;;4.03;;
142;SDS011;63667;49.046;8.468;2023-11-25T14:55:18;13.70;;;4.07;;
142;SDS011;63667;49.046;8.468;2023-11-25T14:57:46;10.03;;;4.13;;
142;SDS011;63667;49.046;8.468;2023-11-25T15:00:13;11.80;;;4.10;;
142;SDS011;63667;49.046;8.468;2023-11-25T15:02:42;11.00;;;3.77;;
142;SDS011;63667;49.046;8.468;2023-11-25T15:05:09;10.03;;;3.63;;
142;SDS011;63667;49.046;8.468;2023-11-25T15:07:37;10.13;;;4.10;;
142;SDS011;63667;49.046;8.468;2023-11-25T15:10:04;7.80;;;4.20;;
142;SDS011;63667;49.046;8.468;2023-11-25T15:12:36;8.30;;;4.00;;
142;SDS011;63667;49.046;8.468;2023-11-25T15:15:04;7.93;;;4.33;;
142;SDS011;63667;49.046;8.468;2023-11-25T15:17:34;6.07;;;3.60;;
142;SDS011;63667;49.046;8.468;2023-11-25T15:20:01;8.10;;;4.20;;
142;SDS011;63667;49.046;8.468;2023-11-25T15:22:30;6.80;;;4.00;;
142;SDS011;63667;49.046;8.468;2023-11-25T15:24:57;6.70;;;3.63;;
142;SDS011;63667;49.046;8.468;2023-11-25T15:27:25;7.63;;;4.10;;
142;SDS011;63667;49.046;8.468;2023-11-25T15:29:59;7.07;;;4.10;;